sensor_id;sensor_type;location;lat;lon;timestamp;P1;durP1;ratioP1;P2;durP2;ratioP2
28587;SDS011;15787;49.662;10.162;2023-03-12T00:01:47;17.83;;;8.55;;
28587;SDS011;15787;49.662;10.162;2023-03-12T00:04:21;15.23;;;7.88;;
28587;SDS011;15787;49.662;10.162;2023-03-12T00:06:55;17.48;;;9.52;;
28587;SDS011;15787;49.662;10.162;2023-03-12T00:09:28;18.20;;;8.80;;
28587;SDS011;15787;49.662;10.162;2023-03-12T00:12:01;22.23;;;9.50;;
28587;SDS011;15787;49.662;10.162;2023-03-12T00:14:34;15.95;;;8.02;;
28587;SDS011;15787;49.662;10.162;2023-03-12T00:17:07;15.93;;;8.38;;
28587;SDS011;15787;49.662;10.162;2023-03-12T00:19:40;15.98;;;7.60;;
28587;SDS011;15787;49.662;10.162;2023-03-12T00:22:15;15.93;;;9.15;;
28587;SDS011;15787;49.662;10.162;2023-03-12T00:24:49;19.17;;;8.20;;
28587;SDS011;15787;49.662;10.162;2023-03-12T00:27:22;17.85;;;9.00;;
28587;SDS011;15787;49.662;10.162;2023-03-12T00:29:55;15.27;;;7.75;;
28587;SDS011;15787;49.662;10.162;2023-03-12T00:32:29;12.68;;;7.68;;
28587;SDS011;15787;49.662;10.162;2023-03-12T00:35:04;16.00;;;7.38;;
28587;SDS011;15787;49.662;10.162;2023-03-12T00:37:39;17.92;;;8.68;;
28587;SDS011;15787;49.662;10.162;2023-03-12T00:40:12;11.93;;;7.07;;
28587;SDS011;15787;49.662;10.162;2023-03-12T00:42:45;18.15;;;8.50;;
28587;SDS011;15787;49.662;10.162;2023-03-12T00:45:18;14.20;;;7.50;;
28587;SDS011;15787;49.662;10.162;2023-03-12T00:47:51;17.25;;;7.20;;
28587;SDS011;15787;49.662;10.162;2023-03-12T00:50:24;14.25;;;7.72;;
28587;SDS011;15787;49.662;10.162;2023-03-12T00:52:58;13.00;;;7.00;;
28587;SDS011;15787;49.662;10.162;2023-03-12T00:55:32;14.57;;;7.35;;
28587;SDS011;15787;49.662;10.162;2023-03-12T00:58:05;13.25;;;7.25;;
28587;SDS011;15787;49.662;10.162;2023-03-12T01:00:38;12.00;;;6.38;;
28587;SDS011;15787;49.662;10.162;2023-03-12T01:03:12;15.65;;;6.32;;
28587;SDS011;15787;49.662;10.162;2023-03-12T01:05:45;15.90;;;6.07;;
28587;SDS011;15787;49.662;10.162;2023-03-12T01:08:25;10.10;;;4.30;;
28587;SDS011;15787;49.662;10.162;2023-03-12T01:10:58;14.45;;;6.10;;
28587;SDS011;15787;49.662;10.162;2023-03-12T01:13:32;11.10;;;5.75;;
28587;SDS011;15787;49.662;10.162;2023-03-12T01:16:05;13.52;;;6.15;;
28587;SDS011;15787;49.662;10.162;2023-03-12T01:18:38;9.57;;;5.32;;
28587;SDS011;15787;49.662;10.162;2023-03-12T01:21:11;10.35;;;5.15;;
28587;SDS011;15787;49.662;10.162;2023-03-12T01:23:46;10.77;;;5.72;;
28587;SDS011;15787;49.662;10.162;2023-03-12T01:26:18;11.35;;;4.65;;
28587;SDS011;15787;49.662;10.162;2023-03-12T01:28:52;10.57;;;5.38;;
28587;SDS011;15787;49.662;10.162;2023-03-12T01:31:24;9.38;;;4.88;;
28587;SDS011;15787;49.662;10.162;2023-03-12T01:33:58;10.77;;;5.15;;
28587;SDS011;15787;49.662;10.162;2023-03-12T01:36:30;10.93;;;5.43;;
28587;SDS011;15787;49.662;10.162;2023-03-12T01:39:05;9.15;;;5.05;;
28587;SDS011;15787;49.662;10.162;2023-03-12T01:41:38;12.23;;;5.05;;
28587;SDS011;15787;49.662;10.162;2023-03-12T01:44:11;14.07;;;5.25;;
28587;SDS011;15787;49.662;10.162;2023-03-12T01:46:46;11.15;;;5.65;;
28587;SDS011;15787;49.662;10.162;2023-03-12T01:49:23;11.57;;;6.03;;
28587;SDS011;15787;49.662;10.162;2023-03-12T01:52:00;11.98;;;6.40;;
28587;SDS011;15787;49.662;10.162;2023-03-12T01:54:44;11.65;;;5.30;;
28587;SDS011;15787;49.662;10.162;2023-03-12T01:57:22;17.25;;;7.78;;
28587;SDS011;15787;49.662;10.162;2023-03-12T01:59:58;18.77;;;7.50;;
28587;SDS011;15787;49.662;10.162;2023-03-12T02:02:43;15.93;;;6.93;;
28587;SDS011;15787;49.662;10.162;2023-03-12T02:05:23;11.90;;;6.15;;
28587;SDS011;15787;49.662;10.162;2023-03-12T02:08:00;13.32;;;7.20;;
28587;SDS011;15787;49.662;10.162;2023-03-12T02:10:35;20.15;;;8.65;;
28587;SDS011;15787;49.662;10.162;2023-03-12T02:13:08;12.98;;;7.53;;
28587;SDS011;15787;49.662;10.162;2023-03-12T02:15:47;15.82;;;7.65;;
28587;SDS011;15787;49.662;10.162;2023-03-12T02:18:21;11.07;;;6.95;;
28587;SDS011;15787;49.662;10.162;2023-03-12T02:20:58;11.93;;;6.15;;
28587;SDS011;15787;49.662;10.162;2023-03-12T02:23:41;8.13;;;4.80;;
28587;SDS011;15787;49.662;10.162;2023-03-12T02:26:20;13.23;;;5.43;;
28587;SDS011;15787;49.662;10.162;2023-03-12T02:28:55;10.23;;;5.88;;
28587;SDS011;15787;49.662;10.162;2023-03-12T02:31:32;8.98;;;5.20;;
28587;SDS011;15787;49.662;10.162;2023-03-12T02:34:10;9.80;;;5.20;;
28587;SDS011;15787;49.662;10.162;2023-03-12T02:36:43;9.40;;;6.03;;
28587;SDS011;15787;49.662;10.162;2023-03-12T02:39:16;12.40;;;4.75;;
28587;SDS011;15787;49.662;10.162;2023-03-12T02:41:51;9.88;;;5.03;;
28587;SDS011;15787;49.662;10.162;2023-03-12T02:44:28;8.18;;;4.78;;
28587;SDS011;15787;49.662;10.162;2023-03-12T02:47:04;9.90;;;5.25;;
28587;SDS011;15787;49.662;10.162;2023-03-12T02:49:37;11.00;;;5.82;;
28587;SDS011;15787;49.662;10.162;2023-03-12T02:52:10;9.02;;;4.32;;
28587;SDS011;15787;49.662;10.162;2023-03-12T02:54:43;10.77;;;4.90;;
28587;SDS011;15787;49.662;10.162;2023-03-12T02:57:18;13.55;;;6.25;;
28587;SDS011;15787;49.662;10.162;2023-03-12T02:59:51;9.93;;;5.45;;
28587;SDS011;15787;49.662;10.162;2023-03-12T03:02:25;12.15;;;5.68;;
28587;SDS011;15787;49.662;10.162;2023-03-12T03:04:58;8.57;;;4.75;;
28587;SDS011;15787;49.662;10.162;2023-03-12T03:07:31;13.77;;;4.78;;
28587;SDS011;15787;49.662;10.162;2023-03-12T03:10:05;9.82;;;4.95;;
28587;SDS011;15787;49.662;10.162;2023-03-12T03:12:40;10.90;;;4.75;;
28587;SDS011;15787;49.662;10.162;2023-03-12T03:15:13;8.10;;;4.63;;
28587;SDS011;15787;49.662;10.162;2023-03-12T03:17:46;8.00;;;4.05;;
28587;SDS011;15787;49.662;10.162;2023-03-12T03:20:19;7.85;;;4.68;;
28587;SDS011;15787;49.662;10.162;2023-03-12T03:22:53;10.00;;;4.82;;
28587;SDS011;15787;49.662;10.162;2023-03-12T03:25:26;8.00;;;4.82;;
28587;SDS011;15787;49.662;10.162;2023-03-12T03:28:00;11.93;;;5.47;;
28587;SDS011;15787;49.662;10.162;2023-03-12T03:30:33;9.95;;;4.85;;
28587;SDS011;15787;49.662;10.162;2023-03-12T03:33:08;10.88;;;4.85;;
28587;SDS011;15787;49.662;10.162;2023-03-12T03:35:41;11.32;;;3.72;;
28587;SDS011;15787;49.662;10.162;2023-03-12T03:38:14;13.43;;;5.07;;
28587;SDS011;15787;49.662;10.162;2023-03-12T03:40:47;12.40;;;5.00;;
28587;SDS011;15787;49.662;10.162;2023-03-12T03:43:22;11.70;;;5.68;;
28587;SDS011;15787;49.662;10.162;2023-03-12T03:45:56;11.65;;;4.88;;
28587;SDS011;15787;49.662;10.162;2023-03-12T03:48:30;10.60;;;5.30;;
28587;SDS011;15787;49.662;10.162;2023-03-12T03:51:04;8.07;;;4.50;;
28587;SDS011;15787;49.662;10.162;2023-03-12T03:53:41;11.75;;;4.97;;
28587;SDS011;15787;49.662;10.162;2023-03-12T03:56:14;6.53;;;4.57;;
28587;SDS011;15787;49.662;10.162;2023-03-12T03:58:52;9.68;;;4.82;;
28587;SDS011;15787;49.662;10.162;2023-03-12T04:01:26;10.07;;;4.57;;
28587;SDS011;15787;49.662;10.162;2023-03-12T04:04:00;6.38;;;4.38;;
28587;SDS011;15787;49.662;10.162;2023-03-12T04:06:35;5.47;;;3.75;;
28587;SDS011;15787;49.662;10.162;2023-03-12T04:09:08;8.80;;;4.53;;
28587;SDS011;15787;49.662;10.162;2023-03-12T04:11:43;8.57;;;4.05;;
28587;SDS011;15787;49.662;10.162;2023-03-12T04:14:18;8.00;;;4.30;;
28587;SDS011;15787;49.662;10.162;2023-03-12T04:16:51;11.05;;;4.50;;
28587;SDS011;15787;49.662;10.162;2023-03-12T04:19:25;10.82;;;4.70;;
28587;SDS011;15787;49.662;10.162;2023-03-12T04:21:58;6.90;;;4.15;;
28587;SDS011;15787;49.662;10.162;2023-03-12T04:24:31;10.40;;;4.28;;
28587;SDS011;15787;49.662;10.162;2023-03-12T04:27:04;10.73;;;5.03;;
28587;SDS011;15787;49.662;10.162;2023-03-12T04:29:40;10.25;;;4.93;;
28587;SDS011;15787;49.662;10.162;2023-03-12T04:32:13;7.55;;;4.60;;
28587;SDS011;15787;49.662;10.162;2023-03-12T04:34:47;10.88;;;3.97;;
28587;SDS011;15787;49.662;10.162;2023-03-12T04:37:21;14.25;;;4.45;;
28587;SDS011;15787;49.662;10.162;2023-03-12T04:39:54;7.53;;;4.03;;
28587;SDS011;15787;49.662;10.162;2023-03-12T04:42:27;9.00;;;3.83;;
28587;SDS011;15787;49.662;10.162;2023-03-12T04:45:02;7.70;;;4.30;;
28587;SDS011;15787;49.662;10.162;2023-03-12T04:47:39;11.40;;;5.07;;
28587;SDS011;15787;49.662;10.162;2023-03-12T04:50:13;10.10;;;4.88;;
28587;SDS011;15787;49.662;10.162;2023-03-12T04:52:46;7.47;;;3.97;;
28587;SDS011;15787;49.662;10.162;2023-03-12T04:55:19;13.30;;;4.88;;
28587;SDS011;15787;49.662;10.162;2023-03-12T04:57:53;11.02;;;3.85;;
28587;SDS011;15787;49.662;10.162;2023-03-12T05:00:29;6.35;;;4.00;;
28587;SDS011;15787;49.662;10.162;2023-03-12T05:03:02;9.48;;;4.57;;
28587;SDS011;15787;49.662;10.162;2023-03-12T05:05:35;12.50;;;4.97;;
28587;SDS011;15787;49.662;10.162;2023-03-12T05:08:09;9.75;;;4.88;;
28587;SDS011;15787;49.662;10.162;2023-03-12T05:10:42;11.15;;;4.15;;
28587;SDS011;15787;49.662;10.162;2023-03-12T05:13:19;8.13;;;4.50;;
28587;SDS011;15787;49.662;10.162;2023-03-12T05:15:59;10.07;;;4.32;;
28587;SDS011;15787;49.662;10.162;2023-03-12T05:18:34;9.60;;;4.35;;
28587;SDS011;15787;49.662;10.162;2023-03-12T05:21:10;9.60;;;4.75;;
28587;SDS011;15787;49.662;10.162;2023-03-12T05:23:45;10.98;;;4.90;;
28587;SDS011;15787;49.662;10.162;2023-03-12T05:26:20;9.85;;;4.88;;
28587;SDS011;15787;49.662;10.162;2023-03-12T05:29:00;9.43;;;4.82;;
28587;SDS011;15787;49.662;10.162;2023-03-12T05:31:36;10.82;;;5.32;;
28587;SDS011;15787;49.662;10.162;2023-03-12T05:34:11;11.98;;;5.43;;
28587;SDS011;15787;49.662;10.162;2023-03-12T05:36:47;7.47;;;4.43;;
28587;SDS011;15787;49.662;10.162;2023-03-12T05:39:25;8.85;;;4.82;;
28587;SDS011;15787;49.662;10.162;2023-03-12T05:42:02;9.98;;;4.70;;
28587;SDS011;15787;49.662;10.162;2023-03-12T05:44:38;10.18;;;4.57;;
28587;SDS011;15787;49.662;10.162;2023-03-12T05:47:14;10.15;;;4.47;;
28587;SDS011;15787;49.662;10.162;2023-03-12T05:49:47;9.93;;;5.05;;
28587;SDS011;15787;49.662;10.162;2023-03-12T05:52:20;7.03;;;5.00;;
28587;SDS011;15787;49.662;10.162;2023-03-12T05:54:54;9.38;;;5.22;;
28587;SDS011;15787;49.662;10.162;2023-03-12T05:57:28;15.10;;;6.35;;
28587;SDS011;15787;49.662;10.162;2023-03-12T06:00:04;11.27;;;5.78;;
28587;SDS011;15787;49.662;10.162;2023-03-12T06:02:44;15.00;;;6.45;;
28587;SDS011;15787;49.662;10.162;2023-03-12T06:05:18;17.23;;;6.68;;
28587;SDS011;15787;49.662;10.162;2023-03-12T06:07:51;13.02;;;6.05;;
28587;SDS011;15787;49.662;10.162;2023-03-12T06:10:24;13.93;;;7.32;;
28587;SDS011;15787;49.662;10.162;2023-03-12T06:12:57;17.67;;;7.10;;
28587;SDS011;15787;49.662;10.162;2023-03-12T06:15:30;13.32;;;6.43;;
28587;SDS011;15787;49.662;10.162;2023-03-12T06:18:05;19.65;;;6.72;;
28587;SDS011;15787;49.662;10.162;2023-03-12T06:20:39;13.35;;;6.22;;
28587;SDS011;15787;49.662;10.162;2023-03-12T06:23:12;10.23;;;5.35;;
28587;SDS011;15787;49.662;10.162;2023-03-12T06:25:45;10.13;;;5.13;;
28587;SDS011;15787;49.662;10.162;2023-03-12T06:28:18;11.35;;;5.03;;
28587;SDS011;15787;49.662;10.162;2023-03-12T06:30:51;12.00;;;6.28;;
28587;SDS011;15787;49.662;10.162;2023-03-12T06:33:26;10.23;;;5.65;;
28587;SDS011;15787;49.662;10.162;2023-03-12T06:36:00;14.68;;;6.05;;
28587;SDS011;15787;49.662;10.162;2023-03-12T06:38:35;12.90;;;6.03;;
28587;SDS011;15787;49.662;10.162;2023-03-12T06:41:09;11.02;;;5.63;;
28587;SDS011;15787;49.662;10.162;2023-03-12T06:43:44;12.75;;;5.70;;
28587;SDS011;15787;49.662;10.162;2023-03-12T06:46:20;8.43;;;4.82;;
28587;SDS011;15787;49.662;10.162;2023-03-12T06:48:57;9.73;;;5.47;;
28587;SDS011;15787;49.662;10.162;2023-03-12T06:51:30;10.82;;;5.00;;
28587;SDS011;15787;49.662;10.162;2023-03-12T06:54:04;11.10;;;5.40;;
28587;SDS011;15787;49.662;10.162;2023-03-12T06:56:37;9.10;;;5.25;;
28587;SDS011;15787;49.662;10.162;2023-03-12T06:59:10;8.13;;;5.13;;
28587;SDS011;15787;49.662;10.162;2023-03-12T07:01:43;10.63;;;4.82;;
28587;SDS011;15787;49.662;10.162;2023-03-12T07:04:17;7.43;;;4.45;;
28587;SDS011;15787;49.662;10.162;2023-03-12T07:06:50;8.18;;;3.90;;
28587;SDS011;15787;49.662;10.162;2023-03-12T07:09:23;12.00;;;4.95;;
28587;SDS011;15787;49.662;10.162;2023-03-12T07:11:56;8.77;;;4.63;;
28587;SDS011;15787;49.662;10.162;2023-03-12T07:14:29;10.00;;;5.30;;
28587;SDS011;15787;49.662;10.162;2023-03-12T07:17:03;10.45;;;5.50;;
28587;SDS011;15787;49.662;10.162;2023-03-12T07:19:38;11.93;;;5.68;;
28587;SDS011;15787;49.662;10.162;2023-03-12T07:22:11;12.38;;;5.43;;
28587;SDS011;15787;49.662;10.162;2023-03-12T07:24:44;10.65;;;4.65;;
28587;SDS011;15787;49.662;10.162;2023-03-12T07:27:17;9.00;;;4.32;;
28587;SDS011;15787;49.662;10.162;2023-03-12T07:29:50;10.40;;;5.22;;
28587;SDS011;15787;49.662;10.162;2023-03-12T07:32:23;13.50;;;4.45;;
28587;SDS011;15787;49.662;10.162;2023-03-12T07:34:57;10.00;;;4.55;;
28587;SDS011;15787;49.662;10.162;2023-03-12T07:37:30;11.55;;;4.72;;
28587;SDS011;15787;49.662;10.162;2023-03-12T07:40:04;8.48;;;4.47;;
28587;SDS011;15787;49.662;10.162;2023-03-12T07:42:37;11.93;;;5.35;;
28587;SDS011;15787;49.662;10.162;2023-03-12T07:45:10;10.48;;;5.28;;
28587;SDS011;15787;49.662;10.162;2023-03-12T07:47:43;9.25;;;5.18;;
28587;SDS011;15787;49.662;10.162;2023-03-12T07:50:19;10.38;;;5.05;;
28587;SDS011;15787;49.662;10.162;2023-03-12T07:52:52;8.85;;;5.32;;
28587;SDS011;15787;49.662;10.162;2023-03-12T07:55:25;8.00;;;4.78;;
28587;SDS011;15787;49.662;10.162;2023-03-12T07:57:58;11.07;;;4.30;;
28587;SDS011;15787;49.662;10.162;2023-03-12T08:00:31;8.27;;;4.88;;
28587;SDS011;15787;49.662;10.162;2023-03-12T08:03:04;9.07;;;4.78;;
28587;SDS011;15787;49.662;10.162;2023-03-12T08:05:38;7.78;;;4.35;;
28587;SDS011;15787;49.662;10.162;2023-03-12T08:08:11;9.23;;;4.88;;
28587;SDS011;15787;49.662;10.162;2023-03-12T08:10:45;8.65;;;4.75;;
28587;SDS011;15787;49.662;10.162;2023-03-12T08:13:18;7.03;;;3.80;;
28587;SDS011;15787;49.662;10.162;2023-03-12T08:15:53;7.18;;;3.85;;
28587;SDS011;15787;49.662;10.162;2023-03-12T08:18:26;10.32;;;5.13;;
28587;SDS011;15787;49.662;10.162;2023-03-12T08:21:01;9.93;;;4.43;;
28587;SDS011;15787;49.662;10.162;2023-03-12T08:23:34;7.25;;;4.32;;
28587;SDS011;15787;49.662;10.162;2023-03-12T08:26:07;7.80;;;4.28;;
28587;SDS011;15787;49.662;10.162;2023-03-12T08:28:40;7.68;;;3.88;;
28587;SDS011;15787;49.662;10.162;2023-03-12T08:31:13;12.05;;;4.70;;
28587;SDS011;15787;49.662;10.162;2023-03-12T08:33:46;8.45;;;4.65;;
28587;SDS011;15787;49.662;10.162;2023-03-12T08:36:20;8.60;;;4.60;;
28587;SDS011;15787;49.662;10.162;2023-03-12T08:38:53;9.05;;;4.57;;
28587;SDS011;15787;49.662;10.162;2023-03-12T08:41:26;11.60;;;4.35;;
28587;SDS011;15787;49.662;10.162;2023-03-12T08:44:00;8.85;;;4.60;;
28587;SDS011;15787;49.662;10.162;2023-03-12T08:46:33;7.47;;;4.40;;
28587;SDS011;15787;49.662;10.162;2023-03-12T08:49:06;8.20;;;4.88;;
28587;SDS011;15787;49.662;10.162;2023-03-12T08:51:41;13.63;;;5.30;;
28587;SDS011;15787;49.662;10.162;2023-03-12T08:54:14;10.82;;;5.00;;
28587;SDS011;15787;49.662;10.162;2023-03-12T08:56:48;10.38;;;4.68;;
28587;SDS011;15787;49.662;10.162;2023-03-12T08:59:22;9.88;;;4.00;;
28587;SDS011;15787;49.662;10.162;2023-03-12T09:01:55;11.90;;;4.85;;
28587;SDS011;15787;49.662;10.162;2023-03-12T09:04:28;11.93;;;5.13;;
28587;SDS011;15787;49.662;10.162;2023-03-12T09:07:02;8.35;;;4.28;;
28587;SDS011;15787;49.662;10.162;2023-03-12T09:09:36;7.72;;;4.10;;
28587;SDS011;15787;49.662;10.162;2023-03-12T09:12:09;10.63;;;4.20;;
28587;SDS011;15787;49.662;10.162;2023-03-12T09:14:42;8.32;;;3.85;;
28587;SDS011;15787;49.662;10.162;2023-03-12T09:17:34;7.25;;;3.60;;
28587;SDS011;15787;49.662;10.162;2023-03-12T09:20:08;7.20;;;3.35;;
28587;SDS011;15787;49.662;10.162;2023-03-12T09:22:45;14.75;;;4.15;;
28587;SDS011;15787;49.662;10.162;2023-03-12T09:25:19;5.95;;;3.05;;
28587;SDS011;15787;49.662;10.162;2023-03-12T09:27:53;7.28;;;3.28;;
28587;SDS011;15787;49.662;10.162;2023-03-12T09:30:26;12.65;;;3.33;;
28587;SDS011;15787;49.662;10.162;2023-03-12T09:33:00;10.13;;;2.80;;
28587;SDS011;15787;49.662;10.162;2023-03-12T09:35:33;7.03;;;2.80;;
28587;SDS011;15787;49.662;10.162;2023-03-12T09:38:08;7.13;;;2.97;;
28587;SDS011;15787;49.662;10.162;2023-03-12T09:40:45;4.50;;;2.67;;
28587;SDS011;15787;49.662;10.162;2023-03-12T09:43:20;7.05;;;3.00;;
28587;SDS011;15787;49.662;10.162;2023-03-12T09:45:58;6.13;;;2.85;;
28587;SDS011;15787;49.662;10.162;2023-03-12T09:48:33;5.93;;;2.70;;
28587;SDS011;15787;49.662;10.162;2023-03-12T09:51:08;8.10;;;3.42;;
28587;SDS011;15787;49.662;10.162;2023-03-12T09:53:50;8.32;;;3.25;;
28587;SDS011;15787;49.662;10.162;2023-03-12T09:56:25;11.95;;;3.08;;
28587;SDS011;15787;49.662;10.162;2023-03-12T09:58:59;9.38;;;3.30;;
28587;SDS011;15787;49.662;10.162;2023-03-12T10:01:34;7.97;;;3.10;;
28587;SDS011;15787;49.662;10.162;2023-03-12T10:07:23;8.32;;;3.25;;
28587;SDS011;15787;49.662;10.162;2023-03-12T10:10:14;6.20;;;3.67;;
28587;SDS011;15787;49.662;10.162;2023-03-12T10:13:00;8.52;;;3.75;;
28587;SDS011;15787;49.662;10.162;2023-03-12T10:15:45;8.27;;;3.53;;
28587;SDS011;15787;49.662;10.162;2023-03-12T10:18:28;8.18;;;4.60;;
28587;SDS011;15787;49.662;10.162;2023-03-12T10:21:19;8.60;;;3.50;;
28587;SDS011;15787;49.662;10.162;2023-03-12T10:24:03;12.68;;;3.88;;
28587;SDS011;15787;49.662;10.162;2023-03-12T10:26:46;12.43;;;4.35;;
28587;SDS011;15787;49.662;10.162;2023-03-12T10:29:23;10.95;;;3.83;;
28587;SDS011;15787;49.662;10.162;2023-03-12T10:31:59;8.75;;;4.60;;
28587;SDS011;15787;49.662;10.162;2023-03-12T10:34:36;9.93;;;4.38;;
28587;SDS011;15787;49.662;10.162;2023-03-12T10:37:13;8.95;;;4.25;;
28587;SDS011;15787;49.662;10.162;2023-03-12T10:39:50;7.95;;;3.95;;
28587;SDS011;15787;49.662;10.162;2023-03-12T10:42:26;8.05;;;3.85;;
28587;SDS011;15787;49.662;10.162;2023-03-12T10:45:09;10.60;;;4.65;;
28587;SDS011;15787;49.662;10.162;2023-03-12T10:47:51;9.77;;;4.85;;
28587;SDS011;15787;49.662;10.162;2023-03-12T10:50:28;9.73;;;4.57;;
28587;SDS011;15787;49.662;10.162;2023-03-12T10:53:16;10.63;;;4.15;;
28587;SDS011;15787;49.662;10.162;2023-03-12T10:55:57;9.32;;;3.92;;
28587;SDS011;15787;49.662;10.162;2023-03-12T10:58:36;6.45;;;3.75;;
28587;SDS011;15787;49.662;10.162;2023-03-12T11:01:15;9.07;;;3.97;;
28587;SDS011;15787;49.662;10.162;2023-03-12T11:03:52;8.27;;;4.43;;
28587;SDS011;15787;49.662;10.162;2023-03-12T11:06:40;11.18;;;4.30;;
28587;SDS011;15787;49.662;10.162;2023-03-12T11:09:14;8.20;;;3.92;;
28587;SDS011;15787;49.662;10.162;2023-03-12T11:11:50;10.98;;;3.47;;
28587;SDS011;15787;49.662;10.162;2023-03-12T11:14:24;9.27;;;4.18;;
28587;SDS011;15787;49.662;10.162;2023-03-12T11:16:59;12.65;;;4.10;;
28587;SDS011;15787;49.662;10.162;2023-03-12T11:19:52;7.57;;;3.75;;
28587;SDS011;15787;49.662;10.162;2023-03-12T11:22:26;7.05;;;3.70;;
28587;SDS011;15787;49.662;10.162;2023-03-12T11:25:02;7.25;;;4.07;;
28587;SDS011;15787;49.662;10.162;2023-03-12T11:27:39;9.07;;;3.97;;
28587;SDS011;15787;49.662;10.162;2023-03-12T11:30:17;7.85;;;3.80;;
28587;SDS011;15787;49.662;10.162;2023-03-12T11:32:55;6.93;;;3.28;;
28587;SDS011;15787;49.662;10.162;2023-03-12T11:35:30;9.15;;;3.65;;
28587;SDS011;15787;49.662;10.162;2023-03-12T11:38:15;6.47;;;3.08;;
28587;SDS011;15787;49.662;10.162;2023-03-12T11:40:54;5.75;;;3.38;;
28587;SDS011;15787;49.662;10.162;2023-03-12T11:43:39;5.75;;;3.33;;
28587;SDS011;15787;49.662;10.162;2023-03-12T11:46:31;9.15;;;3.55;;
28587;SDS011;15787;49.662;10.162;2023-03-12T11:49:16;7.40;;;3.50;;
28587;SDS011;15787;49.662;10.162;2023-03-12T11:52:00;8.60;;;3.92;;
28587;SDS011;15787;49.662;10.162;2023-03-12T11:54:43;6.55;;;3.22;;
28587;SDS011;15787;49.662;10.162;2023-03-12T11:57:34;6.65;;;4.50;;
28587;SDS011;15787;49.662;10.162;2023-03-12T12:00:16;4.40;;;3.00;;
28587;SDS011;15787;49.662;10.162;2023-03-12T12:03:13;7.38;;;3.10;;
28587;SDS011;15787;49.662;10.162;2023-03-12T12:06:10;9.90;;;3.67;;
28587;SDS011;15787;49.662;10.162;2023-03-12T12:11:48;5.75;;;3.40;;
28587;SDS011;15787;49.662;10.162;2023-03-12T12:14:37;7.32;;;3.20;;
28587;SDS011;15787;49.662;10.162;2023-03-12T12:17:24;5.82;;;3.40;;
28587;SDS011;15787;49.662;10.162;2023-03-12T12:20:12;6.03;;;3.10;;
28587;SDS011;15787;49.662;10.162;2023-03-12T12:23:05;5.40;;;3.63;;
28587;SDS011;15787;49.662;10.162;2023-03-12T12:31:44;5.93;;;3.45;;
28587;SDS011;15787;49.662;10.162;2023-03-12T12:34:30;9.05;;;4.15;;
28587;SDS011;15787;49.662;10.162;2023-03-12T12:37:36;6.93;;;3.72;;
28587;SDS011;15787;49.662;10.162;2023-03-12T12:40:21;7.75;;;3.85;;
28587;SDS011;15787;49.662;10.162;2023-03-12T12:43:01;6.93;;;3.95;;
28587;SDS011;15787;49.662;10.162;2023-03-12T12:45:42;5.95;;;3.90;;
28587;SDS011;15787;49.662;10.162;2023-03-12T12:48:19;5.68;;;3.67;;
28587;SDS011;15787;49.662;10.162;2023-03-12T12:50:54;5.95;;;3.13;;
28587;SDS011;15787;49.662;10.162;2023-03-12T12:53:34;5.97;;;4.05;;
28587;SDS011;15787;49.662;10.162;2023-03-12T12:56:15;7.57;;;3.85;;
28587;SDS011;15787;49.662;10.162;2023-03-12T12:58:59;6.47;;;3.67;;
28587;SDS011;15787;49.662;10.162;2023-03-12T13:01:37;5.78;;;3.55;;
28587;SDS011;15787;49.662;10.162;2023-03-12T13:04:14;5.20;;;3.97;;
28587;SDS011;15787;49.662;10.162;2023-03-12T13:09:39;7.40;;;3.53;;
28587;SDS011;15787;49.662;10.162;2023-03-12T13:12:15;6.78;;;3.40;;
28587;SDS011;15787;49.662;10.162;2023-03-12T13:14:52;8.63;;;4.03;;
28587;SDS011;15787;49.662;10.162;2023-03-12T13:17:32;6.55;;;3.95;;
28587;SDS011;15787;49.662;10.162;2023-03-12T13:20:10;6.40;;;4.18;;
28587;SDS011;15787;49.662;10.162;2023-03-12T13:22:56;5.60;;;3.70;;
28587;SDS011;15787;49.662;10.162;2023-03-12T13:25:40;7.40;;;4.47;;
28587;SDS011;15787;49.662;10.162;2023-03-12T13:28:33;7.28;;;4.68;;
28587;SDS011;15787;49.662;10.162;2023-03-12T13:31:33;8.90;;;4.95;;
28587;SDS011;15787;49.662;10.162;2023-03-12T13:40:35;8.98;;;5.25;;
28587;SDS011;15787;49.662;10.162;2023-03-12T13:46:27;7.90;;;4.50;;
28587;SDS011;15787;49.662;10.162;2023-03-12T13:49:13;7.90;;;4.65;;
28587;SDS011;15787;49.662;10.162;2023-03-12T13:51:53;11.52;;;4.95;;
28587;SDS011;15787;49.662;10.162;2023-03-12T13:54:31;8.25;;;4.93;;
28587;SDS011;15787;49.662;10.162;2023-03-12T13:57:10;10.23;;;4.68;;
28587;SDS011;15787;49.662;10.162;2023-03-12T13:59:55;6.95;;;4.05;;
28587;SDS011;15787;49.662;10.162;2023-03-12T14:02:30;8.18;;;5.35;;
28587;SDS011;15787;49.662;10.162;2023-03-12T14:05:07;11.20;;;4.85;;
28587;SDS011;15787;49.662;10.162;2023-03-12T14:08:05;11.65;;;5.80;;
28587;SDS011;15787;49.662;10.162;2023-03-12T14:10:47;9.07;;;4.78;;
28587;SDS011;15787;49.662;10.162;2023-03-12T14:13:35;9.70;;;4.65;;
28587;SDS011;15787;49.662;10.162;2023-03-12T14:16:19;11.05;;;5.55;;
28587;SDS011;15787;49.662;10.162;2023-03-12T14:19:00;14.48;;;5.30;;
28587;SDS011;15787;49.662;10.162;2023-03-12T14:21:36;9.60;;;5.75;;
28587;SDS011;15787;49.662;10.162;2023-03-12T14:24:15;12.10;;;6.82;;
28587;SDS011;15787;49.662;10.162;2023-03-12T14:26:55;12.23;;;5.32;;
28587;SDS011;15787;49.662;10.162;2023-03-12T14:29:33;9.70;;;5.10;;
28587;SDS011;15787;49.662;10.162;2023-03-12T14:32:12;10.02;;;5.65;;
28587;SDS011;15787;49.662;10.162;2023-03-12T14:34:49;8.38;;;5.50;;
28587;SDS011;15787;49.662;10.162;2023-03-12T14:37:27;12.38;;;5.38;;
28587;SDS011;15787;49.662;10.162;2023-03-12T14:40:03;13.20;;;6.82;;
28587;SDS011;15787;49.662;10.162;2023-03-12T14:42:46;11.55;;;6.72;;
28587;SDS011;15787;49.662;10.162;2023-03-12T14:45:21;12.07;;;6.25;;
28587;SDS011;15787;49.662;10.162;2023-03-12T14:47:55;10.63;;;5.30;;
28587;SDS011;15787;49.662;10.162;2023-03-12T14:50:36;9.63;;;5.75;;
28587;SDS011;15787;49.662;10.162;2023-03-12T14:53:11;9.68;;;5.53;;
28587;SDS011;15787;49.662;10.162;2023-03-12T14:55:45;8.60;;;5.57;;
28587;SDS011;15787;49.662;10.162;2023-03-12T14:58:18;11.20;;;6.18;;
28587;SDS011;15787;49.662;10.162;2023-03-12T15:00:57;11.60;;;6.50;;
28587;SDS011;15787;49.662;10.162;2023-03-12T15:03:32;9.18;;;6.05;;
28587;SDS011;15787;49.662;10.162;2023-03-12T15:06:13;11.93;;;6.55;;
28587;SDS011;15787;49.662;10.162;2023-03-12T15:08:49;16.33;;;6.47;;
28587;SDS011;15787;49.662;10.162;2023-03-12T15:11:23;10.95;;;5.93;;
28587;SDS011;15787;49.662;10.162;2023-03-12T15:14:00;10.98;;;6.05;;
28587;SDS011;15787;49.662;10.162;2023-03-12T15:16:37;10.25;;;5.72;;
28587;SDS011;15787;49.662;10.162;2023-03-12T15:19:10;11.45;;;6.20;;
28587;SDS011;15787;49.662;10.162;2023-03-12T15:21:45;8.23;;;5.40;;
28587;SDS011;15787;49.662;10.162;2023-03-12T15:24:18;11.15;;;5.90;;
28587;SDS011;15787;49.662;10.162;2023-03-12T15:26:52;10.07;;;5.72;;
28587;SDS011;15787;49.662;10.162;2023-03-12T15:29:26;11.27;;;5.90;;
28587;SDS011;15787;49.662;10.162;2023-03-12T15:32:02;10.75;;;6.03;;
28587;SDS011;15787;49.662;10.162;2023-03-12T15:34:45;10.85;;;5.80;;
28587;SDS011;15787;49.662;10.162;2023-03-12T15:37:19;10.70;;;5.32;;
28587;SDS011;15787;49.662;10.162;2023-03-12T15:39:59;11.48;;;5.00;;
28587;SDS011;15787;49.662;10.162;2023-03-12T15:42:37;12.23;;;4.97;;
28587;SDS011;15787;49.662;10.162;2023-03-12T15:45:15;14.07;;;5.10;;
28587;SDS011;15787;49.662;10.162;2023-03-12T15:47:52;14.38;;;6.40;;